createdAt,value
2018-09-22T00:02:00.238Z,2.63
2018-09-22T00:04:28.438Z,2.50
2018-09-22T00:06:56.699Z,2.83
2018-09-22T00:09:24.920Z,2.60
2018-09-22T00:11:53.154Z,2.20
2018-09-22T00:14:21.411Z,2.43
2018-09-22T00:16:49.692Z,2.67
2018-09-22T00:19:17.922Z,2.40
2018-09-22T00:21:46.225Z,2.80
2018-09-22T00:24:14.423Z,2.60
2018-09-22T00:26:42.719Z,3.53
2018-09-22T00:29:11.071Z,4.30
2018-09-22T00:31:39.294Z,3.13
2018-09-22T00:34:07.548Z,3.50
2018-09-22T00:36:35.802Z,3.30
2018-09-22T00:39:04.945Z,2.47
2018-09-22T00:41:33.199Z,2.80
2018-09-22T00:44:01.450Z,3.20
2018-09-22T00:46:29.694Z,2.87
2018-09-22T00:48:57.965Z,3.33
2018-09-22T00:51:26.221Z,3.10
2018-09-22T00:53:54.448Z,2.87
2018-09-22T00:56:22.707Z,3.30
2018-09-22T00:58:50.962Z,3.67
2018-09-22T01:01:19.210Z,2.93
2018-09-22T01:03:47.481Z,2.97
2018-09-22T01:06:15.766Z,3.40
2018-09-22T01:08:44.034Z,2.67
2018-09-22T01:11:12.319Z,2.60
2018-09-22T01:13:40.569Z,3.40
2018-09-22T01:16:08.840Z,2.90
2018-09-22T01:18:37.122Z,3.03
2018-09-22T01:21:05.413Z,3.17
2018-09-22T01:23:33.663Z,2.60
2018-09-22T01:26:01.939Z,3.07
2018-09-22T01:28:30.178Z,2.63
2018-09-22T01:30:58.423Z,2.83
2018-09-22T01:33:26.665Z,3.13
2018-09-22T01:35:54.894Z,3.00
2018-09-22T01:38:23.162Z,2.80
2018-09-22T01:40:51.399Z,3.27
2018-09-22T01:43:19.621Z,2.70
2018-09-22T01:45:47.914Z,2.70
2018-09-22T01:48:16.173Z,3.00
2018-09-22T01:50:44.422Z,2.80
2018-09-22T01:53:12.695Z,2.20
2018-09-22T01:55:40.966Z,3.00
2018-09-22T01:58:09.189Z,2.33
2018-09-22T02:00:37.450Z,2.90
2018-09-22T02:03:05.709Z,3.17
2018-09-22T02:05:33.969Z,2.93
2018-09-22T02:08:02.217Z,2.93
2018-09-22T02:10:30.515Z,2.67
2018-09-22T02:12:58.713Z,2.77
2018-09-22T02:15:26.947Z,3.63
2018-09-22T02:17:55.221Z,2.57
2018-09-22T02:20:23.492Z,2.60
2018-09-22T02:22:51.738Z,2.80
2018-09-22T02:25:19.995Z,3.17
2018-09-22T02:27:48.230Z,2.90
2018-09-22T02:30:16.486Z,2.97
2018-09-22T02:32:44.716Z,2.67
2018-09-22T02:35:12.960Z,3.53
2018-09-22T02:37:41.226Z,2.67
2018-09-22T02:40:09.462Z,2.63
2018-09-22T02:42:37.726Z,2.60
2018-09-22T02:45:06.498Z,3.03
2018-09-22T02:47:34.739Z,2.40
2018-09-22T02:50:03.015Z,2.80
2018-09-22T02:52:31.297Z,2.67
2018-09-22T02:54:59.966Z,3.13
2018-09-22T02:57:28.210Z,2.90
2018-09-22T02:59:56.464Z,2.83
2018-09-22T03:02:24.721Z,2.63
2018-09-22T03:04:52.961Z,2.43
2018-09-22T03:07:21.209Z,2.43
2018-09-22T03:09:49.442Z,3.23
2018-09-22T03:12:17.694Z,3.10
2018-09-22T03:14:46.011Z,3.33
2018-09-22T03:17:14.242Z,3.00
2018-09-22T03:19:42.502Z,2.50
2018-09-22T03:22:10.755Z,2.77
2018-09-22T03:24:38.973Z,2.87
2018-09-22T03:27:07.319Z,2.70
2018-09-22T03:29:35.587Z,2.53
2018-09-22T03:32:03.869Z,3.03
2018-09-22T03:34:32.123Z,3.03
2018-09-22T03:37:00.378Z,3.40
2018-09-22T03:39:28.651Z,2.97
2018-09-22T03:41:56.911Z,3.50
2018-09-22T03:44:25.189Z,3.33
2018-09-22T03:46:53.418Z,3.60
2018-09-22T03:49:21.659Z,2.87
2018-09-22T03:51:49.905Z,3.37
2018-09-22T03:54:18.129Z,3.60
2018-09-22T03:56:46.402Z,3.47
2018-09-22T03:59:14.674Z,2.73
2018-09-22T04:01:42.915Z,3.43
2018-09-22T04:04:11.181Z,3.40
2018-09-22T04:06:39.398Z,3.70
2018-09-22T04:09:08.170Z,2.83
2018-09-22T04:11:36.493Z,2.57
2018-09-22T04:14:06.090Z,2.80
2018-09-22T04:16:34.378Z,2.27
2018-09-22T04:19:02.638Z,2.53
2018-09-22T04:21:30.883Z,3.17
2018-09-22T04:24:02.896Z,2.77
2018-09-22T04:26:31.212Z,2.90
2018-09-22T04:28:59.409Z,3.40
2018-09-22T04:31:27.655Z,2.97
2018-09-22T04:33:55.929Z,3.33
2018-09-22T04:36:24.163Z,3.07
2018-09-22T04:38:52.455Z,2.63
2018-09-22T04:41:20.714Z,2.97
2018-09-22T04:43:48.979Z,3.27
2018-09-22T04:46:17.215Z,2.77
2018-09-22T04:48:45.438Z,2.67
2018-09-22T04:51:13.707Z,2.90
2018-09-22T04:53:41.954Z,3.90
2018-09-22T04:56:10.191Z,3.07
2018-09-22T04:58:38.465Z,2.90
2018-09-22T05:01:06.919Z,3.00
2018-09-22T05:03:35.215Z,2.90
2018-09-22T05:06:03.484Z,3.47
2018-09-22T05:08:31.742Z,3.20
2018-09-22T05:11:00.007Z,2.90
2018-09-22T05:13:28.246Z,2.93
2018-09-22T05:15:56.810Z,3.63
2018-09-22T05:18:25.026Z,3.30
2018-09-22T05:20:53.285Z,3.27
2018-09-22T05:23:21.533Z,3.20
2018-09-22T05:25:49.779Z,3.27
2018-09-22T05:28:18.500Z,3.07
2018-09-22T05:30:46.785Z,2.97
2018-09-22T05:33:15.049Z,3.30
2018-09-22T05:35:43.294Z,3.27
2018-09-22T05:38:11.524Z,2.80
2018-09-22T05:40:39.776Z,2.63
2018-09-22T05:43:08.006Z,2.90
2018-09-22T05:45:36.247Z,2.77
2018-09-22T05:48:04.601Z,3.63
2018-09-22T05:50:32.894Z,2.63
2018-09-22T05:53:01.175Z,2.90
2018-09-22T05:55:30.500Z,2.40
2018-09-22T05:57:58.832Z,3.13
2018-09-22T06:00:27.066Z,3.33
2018-09-22T06:02:55.322Z,2.90
2018-09-22T06:05:23.578Z,3.50
2018-09-22T06:07:51.834Z,2.63
2018-09-22T06:10:20.107Z,2.93
2018-09-22T06:12:48.346Z,2.83
2018-09-22T06:15:16.632Z,2.57
2018-09-22T06:17:44.936Z,2.63
2018-09-22T06:20:13.178Z,2.60
2018-09-22T06:22:41.583Z,3.57
2018-09-22T06:25:09.967Z,3.03
2018-09-22T06:27:38.277Z,2.83
2018-09-22T06:30:08.670Z,2.93
2018-09-22T06:32:36.932Z,3.23
2018-09-22T06:35:05.301Z,3.13
2018-09-22T06:37:33.583Z,3.37
2018-09-22T06:40:01.819Z,2.57
2018-09-22T06:42:30.207Z,2.97
2018-09-22T06:44:58.622Z,3.17
2018-09-22T06:47:26.918Z,2.70
2018-09-22T06:49:55.202Z,3.03
2018-09-22T06:52:25.566Z,2.87
2018-09-22T06:54:53.898Z,2.83
2018-09-22T06:57:23.151Z,2.73
2018-09-22T06:59:51.771Z,3.47
2018-09-22T07:02:20.061Z,3.17
2018-09-22T07:04:48.360Z,3.57
2018-09-22T07:07:16.730Z,3.90
2018-09-22T07:09:45.060Z,3.17
2018-09-22T07:12:13.384Z,3.07
2018-09-22T07:14:46.243Z,2.97
2018-09-22T07:17:14.585Z,2.90
2018-09-22T07:19:42.908Z,3.17
2018-09-22T07:22:16.394Z,2.77
2018-09-22T07:24:44.682Z,2.80
2018-09-22T07:27:12.978Z,3.23
2018-09-22T07:29:41.258Z,2.93
2018-09-22T07:32:09.634Z,3.13
2018-09-22T07:34:37.905Z,2.20
2018-09-22T07:37:06.186Z,2.63
2018-09-22T07:39:34.503Z,2.93
2018-09-22T07:42:03.185Z,3.07
2018-09-22T07:44:31.436Z,2.47
2018-09-22T07:46:59.734Z,2.80
2018-09-22T07:49:30.039Z,2.70
2018-09-22T07:51:58.296Z,3.07
2018-09-22T07:54:26.599Z,2.97
2018-09-22T07:56:54.847Z,3.00
2018-09-22T07:59:23.719Z,2.23
2018-09-22T08:01:52.015Z,2.57
2018-09-22T08:04:20.286Z,2.70
2018-09-22T08:06:49.489Z,2.73
2018-09-22T08:09:17.755Z,3.47
2018-09-22T08:11:46.094Z,3.23
2018-09-22T08:14:14.244Z,3.60
2018-09-22T08:16:42.507Z,3.20
2018-09-22T08:19:10.774Z,2.60
2018-09-22T08:21:39.020Z,2.97
2018-09-22T08:24:07.511Z,4.07
2018-09-22T08:26:36.155Z,3.00
2018-09-22T08:29:10.402Z,3.17
2018-09-22T08:31:38.686Z,3.20
2018-09-22T08:34:07.087Z,2.93
2018-09-22T08:36:35.546Z,2.47
2018-09-22T08:39:03.915Z,2.90
2018-09-22T08:41:32.182Z,2.70
2018-09-22T08:44:00.547Z,2.50
2018-09-22T08:46:28.780Z,2.33
2018-09-22T08:48:57.087Z,2.57
2018-09-22T08:51:27.497Z,3.13
2018-09-22T08:53:56.013Z,2.60
2018-09-22T08:56:24.471Z,3.20
2018-09-22T08:58:52.875Z,2.03
2018-09-22T09:01:21.176Z,2.47
2018-09-22T09:03:49.402Z,2.60
2018-09-22T09:06:17.671Z,2.37
2018-09-22T09:08:45.918Z,2.40
2018-09-22T09:11:14.202Z,2.90
2018-09-22T09:13:42.489Z,2.73
2018-09-22T09:16:10.730Z,3.10
2018-09-22T09:18:38.973Z,2.53
2018-09-22T09:21:07.497Z,2.20
2018-09-22T09:23:35.710Z,2.63
2018-09-22T09:26:04.007Z,2.67
2018-09-22T09:28:32.245Z,3.03
2018-09-22T09:31:00.474Z,2.63
2018-09-22T09:33:28.736Z,2.80
2018-09-22T09:35:56.966Z,2.00
2018-09-22T09:38:25.225Z,2.53
2018-09-22T09:40:53.541Z,2.70
2018-09-22T09:43:21.882Z,2.23
2018-09-22T09:45:50.110Z,2.23
2018-09-22T09:48:19.339Z,2.00
2018-09-22T09:50:49.812Z,2.27
2018-09-22T09:53:18.087Z,2.87
2018-09-22T09:55:46.310Z,2.80
2018-09-22T09:58:14.555Z,2.33
2018-09-22T10:00:45.291Z,2.30
2018-09-22T10:03:14.662Z,2.60
2018-09-22T10:05:43.131Z,2.20
2018-09-22T10:08:11.373Z,2.20
2018-09-22T10:10:39.646Z,2.10
2018-09-22T10:13:08.018Z,2.50
2018-09-22T10:15:36.265Z,2.70
2018-09-22T10:18:04.523Z,2.57
2018-09-22T10:20:32.753Z,2.60
2018-09-22T10:23:00.970Z,2.40
2018-09-22T10:25:29.222Z,2.20
2018-09-22T10:27:57.515Z,2.73
2018-09-22T10:30:25.801Z,2.43
2018-09-22T10:32:54.050Z,2.10
2018-09-22T10:35:22.729Z,2.30
2018-09-22T10:37:50.942Z,2.07
2018-09-22T10:40:19.179Z,1.83
2018-09-22T10:42:47.687Z,1.93
2018-09-22T10:45:15.962Z,2.13
2018-09-22T10:47:44.238Z,1.93
2018-09-22T10:50:12.461Z,2.23
2018-09-22T10:52:40.751Z,2.27
2018-09-22T10:55:08.938Z,1.87
2018-09-22T10:57:37.487Z,2.00
2018-09-22T11:00:05.786Z,1.93
2018-09-22T11:02:34.087Z,2.20
2018-09-22T11:05:02.446Z,1.70
2018-09-22T11:07:31.193Z,2.60
2018-09-22T11:09:59.449Z,2.00
2018-09-22T11:12:27.733Z,2.60
2018-09-22T11:14:56.051Z,2.37
2018-09-22T11:17:24.321Z,2.03
2018-09-22T11:19:52.559Z,1.97
2018-09-22T11:22:20.944Z,2.00
2018-09-22T11:24:49.168Z,2.30
2018-09-22T11:27:18.546Z,2.03
2018-09-22T11:29:46.769Z,2.47
2018-09-22T11:32:15.202Z,2.03
2018-09-22T11:34:43.445Z,2.23
2018-09-22T11:37:11.685Z,2.57
2018-09-22T11:39:39.927Z,2.40
2018-09-22T11:42:08.150Z,2.50
2018-09-22T11:44:36.390Z,2.53
2018-09-22T11:47:04.754Z,2.20
2018-09-22T11:49:32.973Z,2.63
2018-09-22T11:52:01.193Z,2.37
2018-09-22T11:54:29.425Z,2.47
2018-09-22T11:56:57.657Z,2.37
2018-09-22T11:59:25.916Z,2.27
2018-09-22T12:01:54.236Z,2.27
2018-09-22T12:04:22.442Z,2.73
2018-09-22T12:06:50.906Z,2.57
2018-09-22T12:09:18.935Z,2.70
2018-09-22T12:11:47.153Z,2.10
2018-09-22T12:14:15.363Z,1.87
2018-09-22T12:16:43.594Z,2.13
2018-09-22T12:19:11.845Z,2.20
2018-09-22T12:21:40.121Z,1.80
2018-09-22T12:24:08.447Z,2.53
2018-09-22T12:26:36.713Z,3.03
2018-09-22T12:29:04.986Z,2.83
2018-09-22T12:31:33.230Z,2.57
2018-09-22T12:34:01.465Z,2.70
2018-09-22T12:36:29.726Z,1.97
2018-09-22T12:38:57.950Z,2.23
2018-09-22T12:41:26.177Z,1.87
2018-09-22T12:43:54.421Z,2.77
2018-09-22T12:46:22.650Z,2.47
2018-09-22T12:48:50.878Z,1.93
2018-09-22T12:51:19.127Z,2.27
2018-09-22T12:53:47.729Z,2.13
2018-09-22T12:56:16.013Z,2.53
2018-09-22T12:58:44.254Z,1.97
2018-09-22T13:01:12.554Z,3.23
2018-09-22T13:03:40.883Z,2.43
2018-09-22T13:06:09.161Z,2.50
2018-09-22T13:08:37.445Z,2.30
2018-09-22T13:11:05.882Z,3.37
2018-09-22T13:13:34.175Z,2.33
2018-09-22T13:16:02.356Z,2.47
2018-09-22T13:18:30.561Z,2.13
2018-09-22T13:20:58.970Z,2.50
2018-09-22T13:23:27.313Z,3.03
2018-09-22T13:25:55.988Z,2.47
2018-09-22T13:28:24.457Z,2.10
2018-09-22T13:30:52.680Z,1.90
2018-09-22T13:33:21.656Z,1.77
2018-09-22T13:35:49.911Z,2.13
2018-09-22T13:38:18.221Z,1.90
2018-09-22T13:40:46.454Z,1.60
2018-09-22T13:43:14.690Z,2.10
2018-09-22T13:45:42.890Z,3.07
2018-09-22T13:48:11.182Z,2.10
2018-09-22T13:50:39.437Z,2.20
2018-09-22T13:53:07.673Z,1.67
2018-09-22T13:55:35.942Z,2.10
2018-09-22T13:58:05.308Z,1.90
2018-09-22T14:00:33.517Z,2.07
2018-09-22T14:03:01.735Z,2.13
2018-09-22T14:05:29.955Z,1.90
2018-09-22T14:07:58.233Z,2.10
2018-09-22T14:10:26.575Z,2.27
2018-09-22T14:12:54.761Z,1.43
2018-09-22T14:15:22.993Z,2.47
2018-09-22T14:17:51.234Z,2.17
2018-09-22T14:20:19.458Z,2.43
2018-09-22T14:22:47.686Z,2.67
2018-09-22T14:25:15.922Z,2.80
2018-09-22T14:27:44.169Z,2.43
2018-09-22T14:30:12.414Z,2.53
2018-09-22T14:32:40.683Z,2.73
2018-09-22T14:35:08.970Z,2.20
2018-09-22T14:37:37.233Z,2.80
2018-09-22T14:40:05.590Z,3.00
2018-09-22T14:42:33.810Z,2.83
2018-09-22T14:45:02.074Z,2.40
2018-09-22T14:47:30.299Z,2.53
2018-09-22T14:49:58.527Z,2.67
2018-09-22T14:52:26.746Z,2.47
2018-09-22T14:54:54.978Z,3.00
2018-09-22T14:57:23.193Z,2.60
2018-09-22T14:59:51.405Z,2.67
2018-09-22T15:02:19.645Z,2.13
2018-09-22T15:04:47.871Z,2.20
2018-09-22T15:07:16.093Z,2.77
2018-09-22T15:09:44.322Z,2.47
2018-09-22T15:12:12.546Z,2.50
2018-09-22T15:14:40.773Z,2.33
2018-09-22T15:17:09.006Z,2.50
2018-09-22T15:19:37.307Z,2.40
2018-09-22T15:22:05.633Z,2.23
2018-09-22T15:24:33.881Z,2.40
2018-09-22T15:27:02.118Z,2.57
2018-09-22T15:29:30.333Z,2.27
2018-09-22T15:31:58.571Z,2.40
2018-09-22T15:37:00.426Z,2.03
2018-09-22T15:39:28.636Z,2.30
2018-09-22T15:41:56.874Z,2.13
2018-09-22T15:44:25.161Z,1.90
2018-09-22T15:46:53.400Z,2.00
2018-09-22T15:49:21.641Z,2.90
2018-09-22T15:51:49.909Z,2.90
2018-09-22T15:54:18.146Z,3.27
2018-09-22T15:56:46.366Z,2.43
2018-09-22T15:59:14.637Z,2.80
2018-09-22T16:01:42.918Z,2.20
2018-09-22T16:04:11.154Z,2.97
2018-09-22T16:06:39.380Z,2.60
2018-09-22T16:09:08.819Z,2.50
2018-09-22T16:11:37.127Z,2.23
2018-09-22T16:14:05.385Z,2.43
2018-09-22T16:16:33.811Z,4.20
2018-09-22T16:19:02.278Z,3.60
2018-09-22T16:21:30.757Z,2.30
2018-09-22T16:23:58.983Z,2.93
2018-09-22T16:26:27.218Z,2.87
2018-09-22T16:28:55.476Z,2.97
2018-09-22T16:31:23.918Z,2.63
2018-09-22T16:33:52.188Z,6.40
2018-09-22T16:36:20.650Z,3.80
2018-09-22T16:38:48.990Z,2.60
2018-09-22T16:41:17.339Z,2.73
2018-09-22T16:43:45.553Z,3.00
2018-09-22T16:46:13.795Z,3.00
2018-09-22T16:48:42.074Z,1.83
2018-09-22T16:51:10.312Z,2.33
2018-09-22T16:53:38.546Z,3.13
2018-09-22T16:56:06.810Z,3.23
2018-09-22T16:58:35.109Z,2.30
2018-09-22T17:01:03.305Z,2.60
2018-09-22T17:03:31.526Z,2.70
2018-09-22T17:05:59.770Z,2.90
2018-09-22T17:08:38.113Z,2.73
2018-09-22T17:11:06.339Z,2.13
2018-09-22T17:13:34.583Z,2.50
2018-09-22T17:16:02.887Z,2.37
2018-09-22T17:18:31.103Z,2.00
2018-09-22T17:20:59.326Z,2.53
2018-09-22T17:23:27.570Z,1.90
2018-09-22T17:25:55.820Z,2.43
2018-09-22T17:28:24.061Z,2.33
2018-09-22T17:30:52.533Z,2.57
2018-09-22T17:33:20.867Z,2.83
2018-09-22T17:35:49.181Z,2.23
2018-09-22T17:38:17.418Z,2.17
2018-09-22T17:40:45.655Z,3.17
2018-09-22T17:43:13.921Z,2.57
2018-09-22T17:45:42.129Z,3.17
2018-09-22T17:48:10.381Z,2.20
2018-09-22T17:50:38.605Z,2.50
2018-09-22T17:53:06.869Z,2.53
2018-09-22T17:55:35.138Z,2.30
2018-09-22T17:58:03.392Z,2.60
2018-09-22T18:00:31.650Z,2.47
2018-09-22T18:02:59.893Z,2.77
2018-09-22T18:05:28.158Z,2.00
2018-09-22T18:07:56.419Z,2.60
2018-09-22T18:10:24.658Z,3.40
2018-09-22T18:12:52.910Z,2.27
2018-09-22T18:15:21.153Z,2.83
2018-09-22T18:17:49.411Z,2.43
2018-09-22T18:20:17.662Z,2.57
2018-09-22T18:22:45.894Z,2.70
2018-09-22T18:25:14.282Z,2.60
2018-09-22T18:27:42.529Z,3.07
2018-09-22T18:30:10.779Z,2.60
2018-09-22T18:32:38.993Z,2.90
2018-09-22T18:35:07.271Z,2.87
2018-09-22T18:37:35.506Z,2.90
2018-09-22T18:40:03.801Z,2.87
2018-09-22T18:42:32.033Z,3.10
2018-09-22T18:45:00.328Z,3.00
2018-09-22T18:47:28.618Z,3.17
2018-09-22T18:49:56.944Z,3.17
2018-09-22T18:52:25.258Z,3.03
2018-09-22T18:54:53.505Z,3.20
2018-09-22T18:57:21.763Z,3.37
2018-09-22T18:59:49.989Z,3.80
2018-09-22T19:02:18.228Z,3.70
2018-09-22T19:04:46.433Z,3.97
2018-09-22T19:07:14.662Z,4.50
2018-09-22T19:09:42.941Z,4.77
2018-09-22T19:12:11.191Z,4.33
2018-09-22T19:14:45.149Z,4.43
2018-09-22T19:17:16.690Z,4.37
2018-09-22T19:19:49.878Z,4.60
2018-09-22T19:22:21.869Z,4.00
2018-09-22T19:24:53.963Z,4.27
2018-09-22T19:27:28.400Z,4.30
2018-09-22T19:31:02.637Z,4.67
2018-09-22T19:33:34.394Z,3.80
2018-09-22T19:36:37.794Z,3.50
2018-09-22T19:39:12.455Z,3.53
2018-09-22T19:41:48.369Z,3.97
2018-09-22T19:44:21.338Z,3.50
2018-09-22T19:48:56.850Z,3.40
2018-09-22T19:51:27.126Z,3.27
2018-09-22T19:53:56.421Z,3.70
2018-09-22T19:56:24.664Z,3.70
2018-09-22T19:58:52.917Z,3.37
2018-09-22T20:01:21.155Z,3.90
2018-09-22T20:03:49.415Z,3.40
2018-09-22T20:06:17.674Z,3.80
2018-09-22T20:08:45.945Z,4.00
2018-09-22T20:11:14.201Z,3.70
2018-09-22T20:13:42.527Z,4.00
2018-09-22T20:16:10.769Z,4.40
2018-09-22T20:18:39.022Z,4.03
2018-09-22T20:21:07.273Z,4.40
2018-09-22T20:23:35.501Z,4.13
2018-09-22T20:26:03.803Z,4.10
2018-09-22T20:28:32.804Z,3.67
2018-09-22T20:31:01.925Z,3.90
2018-09-22T20:33:30.212Z,3.83
2018-09-22T20:35:58.454Z,3.47
2018-09-22T20:38:26.670Z,3.63
2018-09-22T20:40:54.934Z,3.47
2018-09-22T20:43:23.178Z,4.37
2018-09-22T20:45:51.415Z,4.13
2018-09-22T20:48:19.677Z,4.10
2018-09-22T20:50:47.909Z,3.77
2018-09-22T20:53:16.161Z,4.50
2018-09-22T20:55:44.866Z,3.60
2018-09-22T20:58:13.131Z,3.57
2018-09-22T21:00:41.404Z,3.80
2018-09-22T21:03:09.625Z,3.37
2018-09-22T21:05:37.891Z,3.63
2018-09-22T21:08:06.293Z,3.80
2018-09-22T21:10:34.548Z,3.57
2018-09-22T21:13:02.778Z,4.27
2018-09-22T21:15:31.022Z,4.10
2018-09-22T21:17:59.260Z,4.73
2018-09-22T21:20:27.502Z,4.33
2018-09-22T21:22:55.721Z,4.37
2018-09-22T21:25:23.955Z,4.70
2018-09-22T21:27:52.192Z,4.63
2018-09-22T21:30:20.416Z,4.63
2018-09-22T21:32:48.639Z,4.47
2018-09-22T21:35:16.922Z,4.40
2018-09-22T21:37:45.144Z,4.70
2018-09-22T21:40:13.394Z,5.20
2018-09-22T21:42:41.621Z,4.50
2018-09-22T21:45:09.855Z,4.40
2018-09-22T21:47:38.101Z,4.57
2018-09-22T21:50:06.359Z,4.93
2018-09-22T21:52:34.594Z,4.33
2018-09-22T21:55:02.860Z,4.10
2018-09-22T21:57:31.134Z,4.20
2018-09-22T21:59:59.542Z,4.83
2018-09-22T22:02:27.900Z,5.33
2018-09-22T22:04:56.319Z,4.90
2018-09-22T22:07:24.570Z,5.60
2018-09-22T22:09:52.785Z,5.03
2018-09-22T22:12:21.018Z,6.27
2018-09-22T22:14:49.264Z,6.07
2018-09-22T22:17:17.584Z,6.33
2018-09-22T22:19:46.843Z,6.40
2018-09-22T22:22:15.372Z,6.37
2018-09-22T22:24:43.691Z,6.57
2018-09-22T22:27:11.927Z,6.77
2018-09-22T22:29:40.179Z,6.90
2018-09-22T22:32:08.402Z,6.33
2018-09-22T22:34:36.663Z,7.40
2018-09-22T22:37:04.874Z,7.90
2018-09-22T22:39:33.097Z,7.90
2018-09-22T22:42:01.432Z,8.63
2018-09-22T22:44:29.722Z,9.07
2018-09-22T22:46:58.014Z,8.60
2018-09-22T22:49:26.299Z,8.63
2018-09-22T22:51:54.570Z,8.40
2018-09-22T22:54:22.809Z,8.90
2018-09-22T22:56:51.161Z,9.23
2018-09-22T22:59:19.470Z,9.43
2018-09-22T23:01:47.841Z,10.30
2018-09-22T23:04:16.087Z,9.33
2018-09-22T23:06:44.365Z,10.60
2018-09-22T23:09:12.605Z,10.87
2018-09-22T23:11:40.865Z,10.47
2018-09-22T23:14:09.266Z,10.70
2018-09-22T23:16:37.522Z,10.77
2018-09-22T23:19:05.976Z,11.33
2018-09-22T23:21:34.210Z,11.43
2018-09-22T23:24:02.447Z,11.53
2018-09-22T23:26:30.704Z,11.87
2018-09-22T23:28:58.932Z,11.80
2018-09-22T23:31:27.183Z,10.93
2018-09-22T23:33:55.434Z,11.83
2018-09-22T23:36:23.710Z,9.40
2018-09-22T23:38:51.970Z,10.20
2018-09-22T23:41:20.239Z,9.17
2018-09-22T23:43:48.460Z,10.67
2018-09-22T23:46:16.799Z,10.63
2018-09-22T23:48:45.034Z,11.10
2018-09-22T23:51:13.293Z,9.77
2018-09-22T23:53:41.518Z,9.83
2018-09-22T23:56:09.782Z,10.27
2018-09-22T23:58:38.037Z,9.57
